sensor_id;sensor_type;location;lat;lon;timestamp;pressure;altitude;pressure_sealevel;temperature;humidity
64064;BME280;50314;50.618;10.642;2023-02-20T00:00:38;97405.44;;;19.70;20.87
64064;BME280;50314;50.618;10.642;2023-02-20T00:03:05;97400.41;;;19.67;20.74
64064;BME280;50314;50.618;10.642;2023-02-20T00:05:31;97403.25;;;19.66;21.08
64064;BME280;50314;50.618;10.642;2023-02-20T00:07:56;97398.03;;;19.64;21.00
64064;BME280;50314;50.618;10.642;2023-02-20T00:10:22;97394.84;;;19.61;21.15
64064;BME280;50314;50.618;10.642;2023-02-20T00:12:49;97401.19;;;19.60;20.85
64064;BME280;50314;50.618;10.642;2023-02-20T00:15:16;97403.97;;;19.58;21.15
64064;BME280;50314;50.618;10.642;2023-02-20T00:17:44;97414.97;;;19.55;20.95
64064;BME280;50314;50.618;10.642;2023-02-20T00:20:16;97419.94;;;19.50;20.81
64064;BME280;50314;50.618;10.642;2023-02-20T00:22:43;97430.63;;;19.50;21.17
64064;BME280;50314;50.618;10.642;2023-02-20T00:25:08;97421.09;;;19.47;21.04
64064;BME280;50314;50.618;10.642;2023-02-20T00:27:34;97415.91;;;19.46;21.12
64064;BME280;50314;50.618;10.642;2023-02-20T00:29:59;97422.38;;;19.43;20.82
64064;BME280;50314;50.618;10.642;2023-02-20T00:32:25;97412.72;;;19.42;21.23
64064;BME280;50314;50.618;10.642;2023-02-20T00:34:50;97410.16;;;19.41;20.82
64064;BME280;50314;50.618;10.642;2023-02-20T00:37:16;97408.59;;;19.38;21.09
64064;BME280;50314;50.618;10.642;2023-02-20T00:39:41;97396.16;;;19.39;20.88
64064;BME280;50314;50.618;10.642;2023-02-20T00:42:07;97398.09;;;19.37;21.24
64064;BME280;50314;50.618;10.642;2023-02-20T00:44:32;97399.22;;;19.34;21.03
64064;BME280;50314;50.618;10.642;2023-02-20T00:46:58;97401.22;;;19.32;21.10
64064;BME280;50314;50.618;10.642;2023-02-20T00:49:23;97404.03;;;19.31;20.93
64064;BME280;50314;50.618;10.642;2023-02-20T00:51:49;97411.38;;;19.29;21.15
64064;BME280;50314;50.618;10.642;2023-02-20T00:54:14;97401.81;;;19.26;21.02
64064;BME280;50314;50.618;10.642;2023-02-20T00:56:40;97403.78;;;19.24;21.05
64064;BME280;50314;50.618;10.642;2023-02-20T00:59:06;97397.63;;;19.23;20.79
64064;BME280;50314;50.618;10.642;2023-02-20T01:01:31;97396.94;;;19.21;21.37
64064;BME280;50314;50.618;10.642;2023-02-20T01:03:57;97396.25;;;19.19;20.91
64064;BME280;50314;50.618;10.642;2023-02-20T01:06:23;97411.44;;;19.19;21.33
64064;BME280;50314;50.618;10.642;2023-02-20T01:08:48;97408.91;;;19.17;21.00
64064;BME280;50314;50.618;10.642;2023-02-20T01:11:13;97410.91;;;19.15;21.12
64064;BME280;50314;50.618;10.642;2023-02-20T01:13:39;97409.19;;;19.14;21.01
64064;BME280;50314;50.618;10.642;2023-02-20T01:16:05;97402.34;;;19.12;21.29
64064;BME280;50314;50.618;10.642;2023-02-20T01:18:31;97401.66;;;19.10;21.00
64064;BME280;50314;50.618;10.642;2023-02-20T01:20:57;97412.50;;;19.08;21.33
64064;BME280;50314;50.618;10.642;2023-02-20T01:23:22;97414.47;;;19.06;21.14
64064;BME280;50314;50.618;10.642;2023-02-20T01:25:48;97418.13;;;19.05;21.51
64064;BME280;50314;50.618;10.642;2023-02-20T01:28:13;97413.75;;;19.04;21.49
64064;BME280;50314;50.618;10.642;2023-02-20T01:30:39;97410.41;;;19.02;21.10
64064;BME280;50314;50.618;10.642;2023-02-20T01:33:04;97411.38;;;19.01;21.39
64064;BME280;50314;50.618;10.642;2023-02-20T01:35:30;97412.38;;;19.00;21.04
64064;BME280;50314;50.618;10.642;2023-02-20T01:37:57;97409.03;;;18.98;21.51
64064;BME280;50314;50.618;10.642;2023-02-20T01:40:24;97398.66;;;18.95;21.14
64064;BME280;50314;50.618;10.642;2023-02-20T01:42:50;97391.63;;;18.94;21.47
64064;BME280;50314;50.618;10.642;2023-02-20T01:45:16;97389.94;;;18.93;21.13
64064;BME280;50314;50.618;10.642;2023-02-20T01:47:43;97386.56;;;18.91;21.17
64064;BME280;50314;50.618;10.642;2023-02-20T01:50:09;97403.59;;;18.90;21.55
64064;BME280;50314;50.618;10.642;2023-02-20T01:52:35;97406.41;;;18.88;21.24
64064;BME280;50314;50.618;10.642;2023-02-20T01:57:39;97393.38;;;18.85;21.25
64064;BME280;50314;50.618;10.642;2023-02-20T02:00:13;97385.78;;;18.81;21.18
64064;BME280;50314;50.618;10.642;2023-02-20T02:02:42;97392.84;;;18.82;21.24
64064;BME280;50314;50.618;10.642;2023-02-20T02:07:40;97381.44;;;18.80;21.57
64064;BME280;50314;50.618;10.642;2023-02-20T02:10:09;97372.75;;;18.77;21.23
64064;BME280;50314;50.618;10.642;2023-02-20T02:12:37;97373.75;;;18.76;21.17
64064;BME280;50314;50.618;10.642;2023-02-20T02:15:15;97382.16;;;18.72;21.72
64064;BME280;50314;50.618;10.642;2023-02-20T02:25:57;97396.56;;;18.61;21.48
64064;BME280;50314;50.618;10.642;2023-02-20T02:39:27;97391.81;;;18.55;21.73
64064;BME280;50314;50.618;10.642;2023-02-20T02:42:06;97394.88;;;18.50;21.56
64064;BME280;50314;50.618;10.642;2023-02-20T02:44:46;97400.09;;;18.52;21.41
64064;BME280;50314;50.618;10.642;2023-02-20T02:50:35;97397.28;;;18.44;21.53
64064;BME280;50314;50.618;10.642;2023-02-20T02:53:04;97384.66;;;18.46;21.85
64064;BME280;50314;50.618;10.642;2023-02-20T02:55:31;97388.16;;;18.46;21.69
64064;BME280;50314;50.618;10.642;2023-02-20T02:58:02;97375.97;;;18.44;21.42
64064;BME280;50314;50.618;10.642;2023-02-20T03:00:33;97369.97;;;18.42;21.59
64064;BME280;50314;50.618;10.642;2023-02-20T03:03:16;97368.41;;;18.39;21.82
64064;BME280;50314;50.618;10.642;2023-02-20T03:06:15;97358.19;;;18.35;21.69
64064;BME280;50314;50.618;10.642;2023-02-20T03:08:45;97352.56;;;18.38;21.71
64064;BME280;50314;50.618;10.642;2023-02-20T03:11:16;97359.75;;;18.37;21.73
64064;BME280;50314;50.618;10.642;2023-02-20T03:14:10;97378.97;;;18.31;21.69
64064;BME280;50314;50.618;10.642;2023-02-20T03:19:47;97379.13;;;18.29;21.49
64064;BME280;50314;50.618;10.642;2023-02-20T03:22:22;97366.91;;;18.27;21.56
64064;BME280;50314;50.618;10.642;2023-02-20T03:24:50;97371.41;;;18.26;21.72
64064;BME280;50314;50.618;10.642;2023-02-20T03:27:43;97369.34;;;18.20;21.53
64064;BME280;50314;50.618;10.642;2023-02-20T03:30:23;97370.31;;;18.19;21.47
64064;BME280;50314;50.618;10.642;2023-02-20T03:32:56;97380.97;;;18.19;21.74
64064;BME280;50314;50.618;10.642;2023-02-20T03:35:43;97368.63;;;18.18;21.63
64064;BME280;50314;50.618;10.642;2023-02-20T03:38:31;97365.25;;;18.16;21.64
64064;BME280;50314;50.618;10.642;2023-02-20T03:41:19;97367.25;;;18.14;21.72
64064;BME280;50314;50.618;10.642;2023-02-20T03:44:04;97362.03;;;18.03;21.82
64064;BME280;50314;50.618;10.642;2023-02-20T03:46:36;97363.28;;;18.08;21.82
64064;BME280;50314;50.618;10.642;2023-02-20T03:49:11;97359.91;;;18.06;21.83
64064;BME280;50314;50.618;10.642;2023-02-20T03:51:56;97351.94;;;18.06;21.82
64064;BME280;50314;50.618;10.642;2023-02-20T03:54:21;97348.44;;;18.06;21.74
64064;BME280;50314;50.618;10.642;2023-02-20T03:56:49;97346.75;;;18.05;21.62
64064;BME280;50314;50.618;10.642;2023-02-20T03:59:27;97347.03;;;18.02;21.86
64064;BME280;50314;50.618;10.642;2023-02-20T04:01:57;97343.38;;;18.03;21.91
64064;BME280;50314;50.618;10.642;2023-02-20T04:04:34;97344.66;;;17.99;21.66
64064;BME280;50314;50.618;10.642;2023-02-20T04:07:04;97336.38;;;18.02;21.53
64064;BME280;50314;50.618;10.642;2023-02-20T04:09:32;97349.72;;;18.02;21.66
64064;BME280;50314;50.618;10.642;2023-02-20T04:12:06;97348.03;;;18.01;21.87
64064;BME280;50314;50.618;10.642;2023-02-20T04:14:33;97345.22;;;18.02;21.50
64064;BME280;50314;50.618;10.642;2023-02-20T04:17:04;97350.69;;;18.01;21.87
64064;BME280;50314;50.618;10.642;2023-02-20T04:19:32;97355.78;;;17.94;22.08
64064;BME280;50314;50.618;10.642;2023-02-20T04:22:01;97357.16;;;17.98;21.69
64064;BME280;50314;50.618;10.642;2023-02-20T04:24:47;97368.25;;;17.94;21.75
64064;BME280;50314;50.618;10.642;2023-02-20T04:27:14;97366.13;;;17.97;21.89
64064;BME280;50314;50.618;10.642;2023-02-20T04:29:40;97374.25;;;17.96;21.85
64064;BME280;50314;50.618;10.642;2023-02-20T04:32:06;97360.94;;;17.96;21.67
64064;BME280;50314;50.618;10.642;2023-02-20T04:34:32;97371.75;;;17.94;22.06
64064;BME280;50314;50.618;10.642;2023-02-20T04:39:30;97368.38;;;17.92;22.01
64064;BME280;50314;50.618;10.642;2023-02-20T04:41:55;97374.53;;;17.93;21.78
64064;BME280;50314;50.618;10.642;2023-02-20T04:44:20;97380.03;;;17.91;22.01
64064;BME280;50314;50.618;10.642;2023-02-20T04:46:55;97389.03;;;17.90;22.09
64064;BME280;50314;50.618;10.642;2023-02-20T04:49:21;97378.50;;;17.89;22.00
64064;BME280;50314;50.618;10.642;2023-02-20T04:51:47;97378.50;;;17.89;21.61
64064;BME280;50314;50.618;10.642;2023-02-20T04:54:12;97372.47;;;17.87;21.99
64064;BME280;50314;50.618;10.642;2023-02-20T04:56:38;97373.44;;;17.85;21.91
64064;BME280;50314;50.618;10.642;2023-02-20T04:59:04;97367.28;;;17.85;21.92
64064;BME280;50314;50.618;10.642;2023-02-20T05:01:29;97374.44;;;17.84;22.08
64064;BME280;50314;50.618;10.642;2023-02-20T05:03:55;97375.44;;;17.83;21.90
64064;BME280;50314;50.618;10.642;2023-02-20T05:06:21;97365.88;;;17.81;21.79
64064;BME280;50314;50.618;10.642;2023-02-20T05:08:46;97368.69;;;17.79;21.92
64064;BME280;50314;50.618;10.642;2023-02-20T05:11:12;97369.69;;;17.78;21.71
64064;BME280;50314;50.618;10.642;2023-02-20T05:13:38;97377.94;;;17.75;22.03
64064;BME280;50314;50.618;10.642;2023-02-20T05:16:03;97377.13;;;17.75;22.16
64064;BME280;50314;50.618;10.642;2023-02-20T05:18:29;97368.41;;;17.73;21.94
64064;BME280;50314;50.618;10.642;2023-02-20T05:20:55;97356.91;;;17.72;21.92
64064;BME280;50314;50.618;10.642;2023-02-20T05:23:40;97364.22;;;17.70;21.90
64064;BME280;50314;50.618;10.642;2023-02-20T05:26:09;97358.19;;;17.68;22.08
64064;BME280;50314;50.618;10.642;2023-02-20T05:28:37;97359.19;;;17.67;22.24
64064;BME280;50314;50.618;10.642;2023-02-20T05:31:04;97363.53;;;17.68;21.71
64064;BME280;50314;50.618;10.642;2023-02-20T05:33:30;97368.84;;;17.68;21.88
64064;BME280;50314;50.618;10.642;2023-02-20T05:35:56;97363.81;;;17.65;22.09
64064;BME280;50314;50.618;10.642;2023-02-20T05:38:21;97363.81;;;17.65;22.03
64064;BME280;50314;50.618;10.642;2023-02-20T05:40:46;97367.47;;;17.64;22.07
64064;BME280;50314;50.618;10.642;2023-02-20T05:43:12;97359.47;;;17.64;21.92
64064;BME280;50314;50.618;10.642;2023-02-20T05:45:37;97364.06;;;17.62;22.01
64064;BME280;50314;50.618;10.642;2023-02-20T05:48:03;97348.94;;;17.63;22.03
64064;BME280;50314;50.618;10.642;2023-02-20T05:50:28;97351.75;;;17.61;22.30
64064;BME280;50314;50.618;10.642;2023-02-20T05:52:54;97350.91;;;17.60;22.11
64064;BME280;50314;50.618;10.642;2023-02-20T05:55:19;97345.72;;;17.59;22.19
64064;BME280;50314;50.618;10.642;2023-02-20T05:57:45;97347.69;;;17.57;22.14
64064;BME280;50314;50.618;10.642;2023-02-20T06:00:11;97342.38;;;17.57;21.91
64064;BME280;50314;50.618;10.642;2023-02-20T06:02:38;97337.03;;;17.57;22.18
64064;BME280;50314;50.618;10.642;2023-02-20T06:05:03;97323.03;;;17.55;22.37
64064;BME280;50314;50.618;10.642;2023-02-20T06:07:30;97312.38;;;17.55;21.98
64064;BME280;50314;50.618;10.642;2023-02-20T06:09:56;97314.03;;;17.56;21.95
64064;BME280;50314;50.618;10.642;2023-02-20T06:12:21;97315.19;;;17.53;22.27
64064;BME280;50314;50.618;10.642;2023-02-20T06:14:47;97313.34;;;17.54;22.22
64064;BME280;50314;50.618;10.642;2023-02-20T06:17:12;97342.66;;;17.54;22.14
64064;BME280;50314;50.618;10.642;2023-02-20T06:19:38;97335.66;;;17.53;22.23
64064;BME280;50314;50.618;10.642;2023-02-20T06:22:04;97333.28;;;17.50;22.21
64064;BME280;50314;50.618;10.642;2023-02-20T06:24:30;97336.91;;;17.49;22.20
64064;BME280;50314;50.618;10.642;2023-02-20T06:26:55;97338.72;;;17.48;22.34
64064;BME280;50314;50.618;10.642;2023-02-20T06:29:22;97336.91;;;17.49;22.30
64064;BME280;50314;50.618;10.642;2023-02-20T06:31:47;97350.22;;;17.49;22.16
64064;BME280;50314;50.618;10.642;2023-02-20T06:34:14;97369.84;;;17.48;22.23
64064;BME280;50314;50.618;10.642;2023-02-20T06:36:40;97357.50;;;17.47;22.29
64064;BME280;50314;50.618;10.642;2023-02-20T06:39:08;97352.16;;;17.47;22.34
64064;BME280;50314;50.618;10.642;2023-02-20T06:41:34;97370.94;;;17.45;22.23
64064;BME280;50314;50.618;10.642;2023-02-20T06:43:59;97369.09;;;17.46;22.29
64064;BME280;50314;50.618;10.642;2023-02-20T06:46:25;97369.09;;;17.46;22.28
64064;BME280;50314;50.618;10.642;2023-02-20T06:48:56;97363.94;;;17.44;22.19
64064;BME280;50314;50.618;10.642;2023-02-20T06:51:26;97363.09;;;17.44;22.08
64064;BME280;50314;50.618;10.642;2023-02-20T06:53:52;97373.75;;;17.44;22.17
64064;BME280;50314;50.618;10.642;2023-02-20T06:56:20;97344.44;;;17.44;22.41
64064;BME280;50314;50.618;10.642;2023-02-20T06:58:47;97360.44;;;17.44;22.19
64064;BME280;50314;50.618;10.642;2023-02-20T07:01:14;97360.44;;;17.44;22.41
64064;BME280;50314;50.618;10.642;2023-02-20T07:03:40;97369.41;;;17.43;22.07
64064;BME280;50314;50.618;10.642;2023-02-20T07:06:06;97361.41;;;17.43;22.51
64064;BME280;50314;50.618;10.642;2023-02-20T07:08:31;97360.56;;;17.42;22.61
64064;BME280;50314;50.618;10.642;2023-02-20T07:10:57;97361.41;;;17.43;22.44
64064;BME280;50314;50.618;10.642;2023-02-20T07:13:22;97366.75;;;17.43;22.66
64064;BME280;50314;50.618;10.642;2023-02-20T07:15:48;97363.38;;;17.41;22.73
64064;BME280;50314;50.618;10.642;2023-02-20T07:18:14;97359.72;;;17.42;22.77
64064;BME280;50314;50.618;10.642;2023-02-20T07:20:41;97347.25;;;17.42;22.69
64064;BME280;50314;50.618;10.642;2023-02-20T07:23:07;97355.22;;;17.42;22.48
64064;BME280;50314;50.618;10.642;2023-02-20T07:25:32;97351.72;;;17.42;22.55
64064;BME280;50314;50.618;10.642;2023-02-20T07:27:58;97355.09;;;17.44;22.70
64064;BME280;50314;50.618;10.642;2023-02-20T07:30:24;97358.75;;;17.43;22.73
64064;BME280;50314;50.618;10.642;2023-02-20T07:32:50;97351.59;;;17.43;22.83
64064;BME280;50314;50.618;10.642;2023-02-20T07:35:15;97340.13;;;17.43;22.66
64064;BME280;50314;50.618;10.642;2023-02-20T07:37:41;97344.56;;;17.42;22.44
64064;BME280;50314;50.618;10.642;2023-02-20T07:40:07;97332.13;;;17.43;22.40
64064;BME280;50314;50.618;10.642;2023-02-20T07:42:33;97328.59;;;17.42;22.69
64064;BME280;50314;50.618;10.642;2023-02-20T07:44:58;97339.25;;;17.42;22.42
64064;BME280;50314;50.618;10.642;2023-02-20T07:47:24;97338.41;;;17.42;22.51
64064;BME280;50314;50.618;10.642;2023-02-20T07:49:49;97341.78;;;17.44;22.47
64064;BME280;50314;50.618;10.642;2023-02-20T07:52:15;97332.81;;;17.45;22.53
64064;BME280;50314;50.618;10.642;2023-02-20T07:54:40;97331.97;;;17.44;22.73
64064;BME280;50314;50.618;10.642;2023-02-20T07:57:05;97327.47;;;17.45;22.39
64064;BME280;50314;50.618;10.642;2023-02-20T07:59:31;97335.34;;;17.46;22.60
64064;BME280;50314;50.618;10.642;2023-02-20T08:01:56;97338.84;;;17.47;22.41
64064;BME280;50314;50.618;10.642;2023-02-20T08:04:22;97340.56;;;17.48;22.23
64064;BME280;50314;50.618;10.642;2023-02-20T08:06:47;97342.94;;;17.51;22.48
64064;BME280;50314;50.618;10.642;2023-02-20T08:09:13;97333.94;;;17.52;22.56
64064;BME280;50314;50.618;10.642;2023-02-20T08:11:38;97338.31;;;17.53;22.40
64064;BME280;50314;50.618;10.642;2023-02-20T08:14:05;97343.50;;;17.54;22.30
64064;BME280;50314;50.618;10.642;2023-02-20T08:16:31;97337.16;;;17.55;22.42
64064;BME280;50314;50.618;10.642;2023-02-20T08:18:58;97337.03;;;17.57;22.49
64064;BME280;50314;50.618;10.642;2023-02-20T08:21:23;97336.06;;;17.58;22.61
64064;BME280;50314;50.618;10.642;2023-02-20T08:23:49;97329.75;;;17.59;22.44
64064;BME280;50314;50.618;10.642;2023-02-20T08:26:17;97328.78;;;17.60;22.43
64064;BME280;50314;50.618;10.642;2023-02-20T08:28:42;97313.63;;;17.60;22.43
64064;BME280;50314;50.618;10.642;2023-02-20T08:31:07;97324.00;;;17.64;22.57
64064;BME280;50314;50.618;10.642;2023-02-20T08:33:33;97306.19;;;17.64;22.42
64064;BME280;50314;50.618;10.642;2023-02-20T08:35:58;97304.19;;;17.66;22.29
64064;BME280;50314;50.618;10.642;2023-02-20T08:38:37;97309.69;;;17.65;22.71
64064;BME280;50314;50.618;10.642;2023-02-20T08:41:07;97302.41;;;17.67;22.69
64064;BME280;50314;50.618;10.642;2023-02-20T08:43:34;97295.25;;;17.67;22.65
64064;BME280;50314;50.618;10.642;2023-02-20T08:46:00;97294.16;;;17.60;22.75
64064;BME280;50314;50.618;10.642;2023-02-20T08:48:26;97290.75;;;17.68;22.49
64064;BME280;50314;50.618;10.642;2023-02-20T08:50:52;97290.47;;;17.71;22.57
64064;BME280;50314;50.618;10.642;2023-02-20T08:53:18;97291.31;;;17.71;22.39
64064;BME280;50314;50.618;10.642;2023-02-20T08:55:43;97284.03;;;17.73;22.31
64064;BME280;50314;50.618;10.642;2023-02-20T08:58:09;97292.69;;;17.75;22.52
64064;BME280;50314;50.618;10.642;2023-02-20T09:00:35;97295.22;;;17.77;21.97
64064;BME280;50314;50.618;10.642;2023-02-20T09:03:00;97290.75;;;17.77;22.22
64064;BME280;50314;50.618;10.642;2023-02-20T09:05:26;97295.06;;;17.78;21.98
64064;BME280;50314;50.618;10.642;2023-02-20T09:07:51;97295.91;;;17.79;22.41
64064;BME280;50314;50.618;10.642;2023-02-20T09:10:18;97288.75;;;17.79;22.50
64064;BME280;50314;50.618;10.642;2023-02-20T09:12:44;97284.03;;;17.73;22.24
64064;BME280;50314;50.618;10.642;2023-02-20T09:15:09;97285.13;;;17.80;22.21
64064;BME280;50314;50.618;10.642;2023-02-20T09:17:35;97271.66;;;17.82;22.14
64064;BME280;50314;50.618;10.642;2023-02-20T09:20:00;97284.84;;;17.83;22.43
64064;BME280;50314;50.618;10.642;2023-02-20T09:22:26;97272.19;;;17.85;22.49
64064;BME280;50314;50.618;10.642;2023-02-20T09:24:53;97273.91;;;17.87;22.26
64064;BME280;50314;50.618;10.642;2023-02-20T09:27:19;97267.56;;;17.88;22.52
64064;BME280;50314;50.618;10.642;2023-02-20T09:29:45;97265.75;;;17.88;22.22
64064;BME280;50314;50.618;10.642;2023-02-20T09:32:11;97261.13;;;17.90;22.25
64064;BME280;50314;50.618;10.642;2023-02-20T09:34:36;97269.78;;;17.92;22.46
64064;BME280;50314;50.618;10.642;2023-02-20T09:37:02;97258.16;;;17.93;22.54
64064;BME280;50314;50.618;10.642;2023-02-20T09:39:29;97246.50;;;17.94;22.55
64064;BME280;50314;50.618;10.642;2023-02-20T09:42:35;97249.47;;;17.91;22.38
64064;BME280;50314;50.618;10.642;2023-02-20T09:45:18;97240.47;;;17.92;22.69
64064;BME280;50314;50.618;10.642;2023-02-20T09:50:50;97241.84;;;17.96;22.51
64064;BME280;50314;50.618;10.642;2023-02-20T09:53:23;97247.06;;;17.98;22.68
64064;BME280;50314;50.618;10.642;2023-02-20T09:55:52;97245.75;;;18.02;22.61
64064;BME280;50314;50.618;10.642;2023-02-20T09:58:25;97238.59;;;18.02;22.39
64064;BME280;50314;50.618;10.642;2023-02-20T10:00:52;97244.34;;;18.07;22.73
64064;BME280;50314;50.618;10.642;2023-02-20T10:03:59;97236.63;;;18.04;22.79
64064;BME280;50314;50.618;10.642;2023-02-20T10:06:29;97240.69;;;18.08;22.74
64064;BME280;50314;50.618;10.642;2023-02-20T10:08:55;97230.56;;;18.12;22.47
64064;BME280;50314;50.618;10.642;2023-02-20T10:14:46;97232.25;;;18.13;22.69
64064;BME280;50314;50.618;10.642;2023-02-20T10:22:21;97214.03;;;18.36;22.62
64064;BME280;50314;50.618;10.642;2023-02-20T10:25:02;97208.28;;;18.41;22.60
64064;BME280;50314;50.618;10.642;2023-02-20T10:30:24;97203.09;;;18.57;22.00
64064;BME280;50314;50.618;10.642;2023-02-20T10:32:58;97201.34;;;18.66;22.17
64064;BME280;50314;50.618;10.642;2023-02-20T10:35:31;97206.59;;;18.75;22.19
64064;BME280;50314;50.618;10.642;2023-02-20T10:38:03;97204.03;;;18.84;21.98
64064;BME280;50314;50.618;10.642;2023-02-20T10:40:36;97202.13;;;18.94;22.42
64064;BME280;50314;50.618;10.642;2023-02-20T10:43:15;97201.06;;;19.05;21.97
64064;BME280;50314;50.618;10.642;2023-02-20T10:48:18;97190.16;;;19.24;22.13
64064;BME280;50314;50.618;10.642;2023-02-20T10:51:06;97189.56;;;19.30;22.14
64064;BME280;50314;50.618;10.642;2023-02-20T10:56:26;97182.81;;;19.44;22.22
64064;BME280;50314;50.618;10.642;2023-02-20T11:01:27;97182.22;;;19.58;21.90
64064;BME280;50314;50.618;10.642;2023-02-20T11:04:09;97168.88;;;19.58;22.09
64064;BME280;50314;50.618;10.642;2023-02-20T11:06:42;97158.25;;;19.66;21.95
64064;BME280;50314;50.618;10.642;2023-02-20T11:09:09;97146.41;;;19.69;22.04
64064;BME280;50314;50.618;10.642;2023-02-20T11:11:37;97147.91;;;19.71;22.18
64064;BME280;50314;50.618;10.642;2023-02-20T11:14:21;97139.22;;;19.69;22.11
64064;BME280;50314;50.618;10.642;2023-02-20T11:16:57;97138.91;;;19.73;22.05
64064;BME280;50314;50.618;10.642;2023-02-20T11:19:37;97142.91;;;19.77;22.04
64064;BME280;50314;50.618;10.642;2023-02-20T11:22:04;97137.78;;;19.83;21.93
64064;BME280;50314;50.618;10.642;2023-02-20T11:24:35;97128.59;;;19.86;21.92
64064;BME280;50314;50.618;10.642;2023-02-20T11:27:14;97117.56;;;19.89;21.98
64064;BME280;50314;50.618;10.642;2023-02-20T11:30:00;97125.25;;;19.92;21.90
64064;BME280;50314;50.618;10.642;2023-02-20T11:32:36;97121.09;;;19.98;22.11
64064;BME280;50314;50.618;10.642;2023-02-20T11:35:25;97111.78;;;20.02;21.65
64064;BME280;50314;50.618;10.642;2023-02-20T11:40:41;97096.25;;;20.05;21.76
64064;BME280;50314;50.618;10.642;2023-02-20T11:43:18;97102.78;;;20.03;21.61
64064;BME280;50314;50.618;10.642;2023-02-20T11:45:46;97099.63;;;20.07;21.53
64064;BME280;50314;50.618;10.642;2023-02-20T11:48:16;97089.59;;;20.09;21.85
64064;BME280;50314;50.618;10.642;2023-02-20T11:50:44;97079.91;;;20.16;21.73
64064;BME280;50314;50.618;10.642;2023-02-20T11:53:23;97072.72;;;20.17;21.61
64064;BME280;50314;50.618;10.642;2023-02-20T11:56:07;97062.34;;;20.22;21.70
64064;BME280;50314;50.618;10.642;2023-02-20T11:58:33;97063.88;;;20.33;21.61
64064;BME280;50314;50.618;10.642;2023-02-20T12:00:59;97050.84;;;20.38;21.92
64064;BME280;50314;50.618;10.642;2023-02-20T12:03:26;97048.34;;;20.45;21.96
64064;BME280;50314;50.618;10.642;2023-02-20T12:05:58;97051.19;;;20.51;21.78
64064;BME280;50314;50.618;10.642;2023-02-20T12:08:30;97044.97;;;20.59;21.89
64064;BME280;50314;50.618;10.642;2023-02-20T12:11:00;97040.00;;;20.64;21.84
64064;BME280;50314;50.618;10.642;2023-02-20T12:13:29;97028.44;;;20.72;21.78
64064;BME280;50314;50.618;10.642;2023-02-20T12:16:17;97027.09;;;20.76;21.95
64064;BME280;50314;50.618;10.642;2023-02-20T12:22:03;97013.00;;;20.90;21.95
64064;BME280;50314;50.618;10.642;2023-02-20T12:24:51;97019.38;;;20.97;21.75
64064;BME280;50314;50.618;10.642;2023-02-20T12:41:48;96990.78;;;21.37;21.52
64064;BME280;50314;50.618;10.642;2023-02-20T12:44:56;97001.47;;;21.45;21.53
64064;BME280;50314;50.618;10.642;2023-02-20T12:47:25;96991.03;;;21.50;21.38
64064;BME280;50314;50.618;10.642;2023-02-20T12:49:53;96982.00;;;21.51;21.54
64064;BME280;50314;50.618;10.642;2023-02-20T12:59:59;96971.63;;;21.79;21.54
64064;BME280;50314;50.618;10.642;2023-02-20T13:02:34;96960.72;;;21.81;21.29
64064;BME280;50314;50.618;10.642;2023-02-20T13:05:02;96962.69;;;21.87;21.44
64064;BME280;50314;50.618;10.642;2023-02-20T13:07:55;96960.22;;;21.86;21.31
64064;BME280;50314;50.618;10.642;2023-02-20T13:10:26;96960.97;;;21.94;21.10
64064;BME280;50314;50.618;10.642;2023-02-20T13:12:53;96959.78;;;21.97;21.47
64064;BME280;50314;50.618;10.642;2023-02-20T13:15:42;96955.91;;;21.99;21.32
64064;BME280;50314;50.618;10.642;2023-02-20T13:20:54;96960.91;;;22.02;21.52
64064;BME280;50314;50.618;10.642;2023-02-20T13:25:46;96953.47;;;22.13;21.05
64064;BME280;50314;50.618;10.642;2023-02-20T13:28:34;96955.31;;;22.12;20.97
64064;BME280;50314;50.618;10.642;2023-02-20T13:31:17;96951.78;;;22.12;21.05
64064;BME280;50314;50.618;10.642;2023-02-20T13:33:45;96946.72;;;22.17;21.07
64064;BME280;50314;50.618;10.642;2023-02-20T13:44:44;96919.88;;;22.17;20.79
64064;BME280;50314;50.618;10.642;2023-02-20T13:55:11;96915.28;;;22.25;20.35
64064;BME280;50314;50.618;10.642;2023-02-20T14:02:45;96900.84;;;22.26;20.51
64064;BME280;50314;50.618;10.642;2023-02-20T14:05:27;96904.94;;;22.22;20.04
64064;BME280;50314;50.618;10.642;2023-02-20T14:07:53;96889.31;;;22.26;20.54
64064;BME280;50314;50.618;10.642;2023-02-20T14:10:26;96888.63;;;22.24;20.36
64064;BME280;50314;50.618;10.642;2023-02-20T14:12:58;96892.50;;;22.21;20.15
64064;BME280;50314;50.618;10.642;2023-02-20T14:15:25;96889.00;;;22.21;19.94
64064;BME280;50314;50.618;10.642;2023-02-20T14:17:52;96888.38;;;22.19;20.18
64064;BME280;50314;50.618;10.642;2023-02-20T14:20:23;96894.91;;;22.16;19.78
64064;BME280;50314;50.618;10.642;2023-02-20T14:23:05;96891.09;;;22.11;20.24
64064;BME280;50314;50.618;10.642;2023-02-20T14:25:30;96886.22;;;22.14;19.97
64064;BME280;50314;50.618;10.642;2023-02-20T14:28:09;96874.38;;;22.09;20.17
64064;BME280;50314;50.618;10.642;2023-02-20T14:30:35;96870.69;;;22.10;20.05
64064;BME280;50314;50.618;10.642;2023-02-20T14:33:02;96874.38;;;22.09;19.81
64064;BME280;50314;50.618;10.642;2023-02-20T14:35:38;96877.59;;;22.04;19.85
64064;BME280;50314;50.618;10.642;2023-02-20T14:38:33;96875.63;;;21.98;20.10
64064;BME280;50314;50.618;10.642;2023-02-20T14:41:19;96867.78;;;21.96;20.00
64064;BME280;50314;50.618;10.642;2023-02-20T14:46:23;96876.84;;;21.95;19.93
64064;BME280;50314;50.618;10.642;2023-02-20T14:49:03;96882.09;;;21.89;20.23
64064;BME280;50314;50.618;10.642;2023-02-20T14:51:28;96870.00;;;21.93;20.03
64064;BME280;50314;50.618;10.642;2023-02-20T14:56:39;96877.94;;;21.86;20.31
64064;BME280;50314;50.618;10.642;2023-02-20T14:59:27;96893.06;;;21.79;20.30